createdAt,value
2019-06-08T00:01:51.091Z,18.00
2019-06-08T00:04:22.756Z,13.80
2019-06-08T00:06:53.242Z,13.97
2019-06-08T00:09:24.089Z,10.80
2019-06-08T00:11:54.602Z,9.90
2019-06-08T00:14:25.597Z,10.83
2019-06-08T00:16:56.143Z,12.40
2019-06-08T00:19:26.486Z,11.30
2019-06-08T00:21:56.983Z,8.87
2019-06-08T00:24:27.380Z,9.10
2019-06-08T00:26:57.887Z,9.00
2019-06-08T00:29:28.356Z,9.47
2019-06-08T00:31:58.843Z,9.03
2019-06-08T00:34:29.299Z,9.70
2019-06-08T00:36:59.784Z,9.17
2019-06-08T00:39:30.246Z,8.73
2019-06-08T00:42:00.715Z,9.00
2019-06-08T00:44:31.071Z,9.50
2019-06-08T00:47:01.551Z,9.87
2019-06-08T00:49:31.922Z,9.57
2019-06-08T00:52:02.334Z,8.77
2019-06-08T00:54:32.712Z,9.23
2019-06-08T00:57:03.095Z,8.53
2019-06-08T00:59:33.535Z,9.23
2019-06-08T01:02:04.094Z,9.37
2019-06-08T01:04:34.392Z,9.40
2019-06-08T01:07:04.841Z,8.80
2019-06-08T01:09:35.318Z,9.57
2019-06-08T01:12:06.007Z,9.60
2019-06-08T01:14:36.457Z,9.07
2019-06-08T01:17:06.808Z,8.93
2019-06-08T01:19:37.260Z,8.73
2019-06-08T01:22:07.758Z,9.40
2019-06-08T01:24:38.214Z,9.90
2019-06-08T01:27:08.516Z,9.10
2019-06-08T01:29:38.883Z,9.43
2019-06-08T01:32:09.150Z,8.63
2019-06-08T01:34:39.571Z,10.20
2019-06-08T01:37:09.979Z,9.33
2019-06-08T01:39:40.418Z,10.10
2019-06-08T01:42:10.788Z,9.30
2019-06-08T01:44:41.238Z,9.77
2019-06-08T01:47:11.695Z,9.70
2019-06-08T01:49:41.995Z,9.60
2019-06-08T01:52:12.387Z,9.60
2019-06-08T01:54:42.752Z,10.00
2019-06-08T01:57:13.099Z,9.80
2019-06-08T01:59:43.539Z,10.00
2019-06-08T02:02:13.884Z,10.20
2019-06-08T02:04:44.347Z,9.97
2019-06-08T02:07:14.728Z,10.30
2019-06-08T02:09:45.082Z,10.17
2019-06-08T02:12:15.365Z,10.33
2019-06-08T02:14:45.730Z,10.33
2019-06-08T02:17:16.263Z,10.27
2019-06-08T02:19:46.589Z,10.10
2019-06-08T02:22:17.034Z,9.90
2019-06-08T02:24:47.476Z,10.60
2019-06-08T02:27:17.839Z,9.93
2019-06-08T02:29:48.319Z,10.23
2019-06-08T02:32:18.688Z,10.60
2019-06-08T02:34:49.136Z,10.17
2019-06-08T02:37:19.619Z,9.77
2019-06-08T02:39:49.971Z,9.57
2019-06-08T02:42:20.463Z,10.60
2019-06-08T02:44:50.849Z,10.50
2019-06-08T02:47:21.295Z,10.13
2019-06-08T02:49:51.639Z,10.20
2019-06-08T02:52:22.044Z,9.87
2019-06-08T02:54:52.497Z,9.50
2019-06-08T02:57:24.549Z,10.60
2019-06-08T02:59:56.401Z,10.37
2019-06-08T03:02:29.675Z,10.23
2019-06-08T03:05:02.671Z,9.77
2019-06-08T03:07:36.888Z,9.73
2019-06-08T03:10:08.276Z,9.70
2019-06-08T03:12:42.208Z,10.17
2019-06-08T03:15:15.055Z,10.10
2019-06-08T03:17:45.455Z,10.13
2019-06-08T03:20:15.891Z,11.03
2019-06-08T03:22:46.267Z,9.90
2019-06-08T03:25:16.717Z,9.80
2019-06-08T03:27:47.189Z,10.70
2019-06-08T03:30:19.449Z,9.57
2019-06-08T03:32:55.582Z,10.13
2019-06-08T03:35:21.516Z,9.70
2019-06-08T03:37:51.884Z,9.30
2019-06-08T03:40:22.287Z,10.07
2019-06-08T03:42:53.288Z,10.13
2019-06-08T03:45:24.724Z,9.53
2019-06-08T03:47:55.195Z,9.50
2019-06-08T03:50:25.607Z,10.17
2019-06-08T03:52:55.952Z,9.10
2019-06-08T03:55:26.324Z,9.87
2019-06-08T03:57:56.762Z,9.60
2019-06-08T04:00:27.059Z,9.80
2019-06-08T04:02:57.403Z,9.73
2019-06-08T04:05:27.951Z,9.73
2019-06-08T04:07:58.412Z,9.00
2019-06-08T04:10:28.802Z,9.03
2019-06-08T04:12:59.236Z,8.83
2019-06-08T04:15:29.596Z,8.73
2019-06-08T04:17:59.938Z,8.37
2019-06-08T04:20:30.413Z,7.27
2019-06-08T04:23:00.779Z,7.83
2019-06-08T04:25:31.175Z,8.37
2019-06-08T04:28:01.570Z,7.57
2019-06-08T04:30:32.030Z,7.90
2019-06-08T04:33:02.375Z,7.90
2019-06-08T04:35:32.738Z,7.47
2019-06-08T04:38:03.225Z,8.10
2019-06-08T04:40:33.583Z,7.70
2019-06-08T04:43:04.046Z,7.30
2019-06-08T04:45:34.393Z,8.03
2019-06-08T04:48:09.139Z,7.30
2019-06-08T04:50:38.524Z,7.33
2019-06-08T04:53:08.955Z,7.17
2019-06-08T04:55:40.813Z,6.97
2019-06-08T04:58:11.344Z,7.03
2019-06-08T05:00:43.372Z,7.17
2019-06-08T05:03:13.718Z,6.30
2019-06-08T05:05:45.294Z,6.90
2019-06-08T05:08:15.905Z,6.73
2019-06-08T05:10:47.404Z,7.13
2019-06-08T05:13:18.014Z,6.83
2019-06-08T05:15:50.209Z,6.37
2019-06-08T05:18:20.585Z,6.40
2019-06-08T05:20:51.430Z,6.60
2019-06-08T05:23:22.120Z,7.00
2019-06-08T05:25:52.575Z,7.13
2019-06-08T05:28:22.962Z,6.97
2019-06-08T05:30:53.390Z,7.20
2019-06-08T05:33:23.680Z,6.80
2019-06-08T05:35:54.035Z,6.60
2019-06-08T05:38:24.514Z,7.20
2019-06-08T05:40:54.871Z,6.87
2019-06-08T05:43:25.362Z,6.37
2019-06-08T05:45:55.734Z,6.97
2019-06-08T05:48:26.204Z,6.80
2019-06-08T05:51:03.599Z,6.40
2019-06-08T05:53:28.543Z,6.60
2019-06-08T05:55:59.076Z,7.00
2019-06-08T05:58:29.455Z,7.57
2019-06-08T06:00:59.839Z,75.83
2019-06-08T06:03:30.298Z,9.20
2019-06-08T06:06:00.643Z,9.10
2019-06-08T06:08:31.012Z,10.00
2019-06-08T06:11:01.606Z,7.20
2019-06-08T06:13:31.995Z,8.57
2019-06-08T06:16:02.372Z,10.28
2019-06-08T06:18:32.751Z,6.30
2019-06-08T06:21:11.264Z,6.20
2019-06-08T06:23:35.082Z,6.30
2019-06-08T06:26:05.498Z,6.15
2019-06-08T06:28:35.809Z,5.47
2019-06-08T06:31:06.191Z,6.10
2019-06-08T06:33:36.648Z,5.67
2019-06-08T06:36:07.028Z,5.33
2019-06-08T06:38:37.387Z,6.12
2019-06-08T06:41:07.886Z,5.87
2019-06-08T06:43:38.324Z,5.97
2019-06-08T06:46:08.886Z,5.53
2019-06-08T06:48:39.274Z,6.60
2019-06-08T06:51:24.994Z,5.80
2019-06-08T06:53:42.781Z,5.75
2019-06-08T06:56:13.295Z,5.30
2019-06-08T06:58:45.019Z,5.65
2019-06-08T07:01:15.530Z,5.53
2019-06-08T07:03:46.086Z,5.92
2019-06-08T07:06:16.458Z,5.35
2019-06-08T07:08:48.164Z,5.80
2019-06-08T07:11:18.803Z,5.90
2019-06-08T07:13:49.196Z,5.72
2019-06-08T07:16:19.739Z,5.60
2019-06-08T07:18:50.270Z,5.60
2019-06-08T07:21:20.654Z,5.60
2019-06-08T07:23:51.521Z,5.47
2019-06-08T07:26:23.026Z,5.87
2019-06-08T07:28:54.038Z,5.75
2019-06-08T07:31:25.703Z,6.10
2019-06-08T07:33:56.134Z,5.50
2019-06-08T07:36:26.494Z,5.62
2019-06-08T07:38:56.944Z,5.80
2019-06-08T07:41:27.339Z,6.10
2019-06-08T07:43:58.522Z,6.30
2019-06-08T07:46:29.153Z,8.50
2019-06-08T07:48:59.511Z,8.10
2019-06-08T07:51:29.976Z,6.62
2019-06-08T07:54:00.455Z,6.10
2019-06-08T07:56:30.836Z,5.60
2019-06-08T07:59:01.295Z,5.90
2019-06-08T08:01:36.199Z,5.85
2019-06-08T08:04:03.627Z,5.78
2019-06-08T08:06:34.099Z,6.42
2019-06-08T08:09:05.917Z,5.95
2019-06-08T08:11:36.258Z,6.25
2019-06-08T08:14:06.734Z,5.90
2019-06-08T08:16:37.109Z,6.28
2019-06-08T08:19:07.603Z,5.90
2019-06-08T08:21:40.771Z,5.67
2019-06-08T08:24:10.205Z,4.90
2019-06-08T08:26:40.679Z,5.30
2019-06-08T08:29:11.037Z,6.83
2019-06-08T08:31:41.415Z,5.12
2019-06-08T08:34:12.023Z,4.97
2019-06-08T08:36:42.515Z,4.40
2019-06-08T08:39:12.975Z,4.87
2019-06-08T08:41:43.763Z,10.48
2019-06-08T08:44:14.503Z,4.37
2019-06-08T08:46:44.944Z,4.25
2019-06-08T08:49:15.319Z,4.60
2019-06-08T08:51:47.572Z,5.17
2019-06-08T08:54:18.419Z,4.72
2019-06-08T08:56:52.162Z,5.55
2019-06-08T08:59:20.910Z,4.40
2019-06-08T09:01:52.605Z,4.37
2019-06-08T09:04:23.349Z,4.47
2019-06-08T09:06:55.331Z,4.33
2019-06-08T09:09:28.694Z,4.23
2019-06-08T09:12:02.291Z,4.70
2019-06-08T09:14:29.752Z,6.35
2019-06-08T09:17:02.116Z,13.32
2019-06-08T09:19:32.263Z,4.10
2019-06-08T09:22:03.885Z,3.92
2019-06-08T09:24:34.585Z,6.30
2019-06-08T09:27:07.806Z,5.20
2019-06-08T09:29:38.886Z,7.58
2019-06-08T09:32:09.303Z,4.12
2019-06-08T09:34:39.683Z,4.20
2019-06-08T09:37:10.123Z,5.00
2019-06-08T09:39:40.516Z,5.03
2019-06-08T09:42:10.987Z,5.43
2019-06-08T09:44:41.348Z,4.10
2019-06-08T09:47:12.641Z,6.47
2019-06-08T09:49:43.294Z,5.10
2019-06-08T09:52:13.660Z,3.80
2019-06-08T09:54:44.232Z,8.83
2019-06-08T09:57:14.722Z,5.37
2019-06-08T09:59:45.191Z,5.67
2019-06-08T10:02:18.207Z,3.77
2019-06-08T10:04:48.371Z,4.00
2019-06-08T10:07:18.893Z,3.87
2019-06-08T10:09:50.118Z,3.70
2019-06-08T10:12:20.623Z,3.87
2019-06-08T10:14:50.994Z,4.07
2019-06-08T10:17:21.993Z,3.80
2019-06-08T10:19:52.413Z,4.03
2019-06-08T10:22:22.879Z,4.20
2019-06-08T10:24:55.305Z,4.43
2019-06-08T10:27:28.215Z,4.50
2019-06-08T10:30:00.013Z,4.23
2019-06-08T10:32:29.720Z,4.70
2019-06-08T10:35:02.296Z,4.60
2019-06-08T10:37:32.259Z,5.00
2019-06-08T10:40:05.443Z,4.63
2019-06-08T10:42:34.599Z,4.80
2019-06-08T10:45:10.389Z,5.30
2019-06-08T10:47:38.331Z,5.07
2019-06-08T10:50:14.931Z,4.63
2019-06-08T10:52:41.591Z,5.00
2019-06-08T10:55:12.660Z,4.90
2019-06-08T10:57:43.225Z,5.20
2019-06-08T11:00:20.803Z,5.00
2019-06-08T11:02:48.699Z,4.77
2019-06-08T11:05:18.296Z,4.80
2019-06-08T11:07:48.794Z,5.17
2019-06-08T11:10:19.631Z,7.27
2019-06-08T11:12:50.023Z,7.60
2019-06-08T11:15:20.470Z,5.40
2019-06-08T11:17:50.952Z,5.37
2019-06-08T11:20:21.299Z,5.80
2019-06-08T11:22:51.654Z,5.80
2019-06-08T11:25:22.000Z,4.85
2019-06-08T11:27:52.454Z,5.03
2019-06-08T11:30:26.792Z,5.20
2019-06-08T11:32:54.951Z,5.00
2019-06-08T11:35:25.326Z,5.45
2019-06-08T11:37:58.307Z,4.83
2019-06-08T11:40:27.963Z,5.00
2019-06-08T11:42:58.673Z,4.83
2019-06-08T11:45:30.320Z,4.63
2019-06-08T11:48:02.579Z,4.73
2019-06-08T11:50:41.508Z,5.13
2019-06-08T11:53:13.535Z,6.47
2019-06-08T11:55:43.177Z,6.57
2019-06-08T11:58:13.908Z,6.87
2019-06-08T12:01:01.822Z,6.45
2019-06-08T12:03:31.136Z,6.50
2019-06-08T12:06:02.191Z,7.50
2019-06-08T12:08:32.774Z,7.70
2019-06-08T12:11:04.251Z,7.67
2019-06-08T12:13:35.347Z,7.33
2019-06-08T12:16:09.298Z,7.20
2019-06-08T12:18:40.074Z,7.27
2019-06-08T12:21:11.327Z,6.87
2019-06-08T12:23:41.952Z,7.87
2019-06-08T12:26:12.343Z,7.43
2019-06-08T12:28:42.682Z,7.40
2019-06-08T12:31:17.345Z,8.03
2019-06-08T12:33:45.219Z,7.93
2019-06-08T12:36:17.044Z,8.53
2019-06-08T12:38:48.656Z,7.50
2019-06-08T12:41:19.366Z,8.40
2019-06-08T12:43:49.899Z,8.03
2019-06-08T12:46:21.574Z,8.43
2019-06-08T12:48:52.070Z,8.10
2019-06-08T12:51:22.454Z,7.97
2019-06-08T12:53:52.902Z,8.83
2019-06-08T12:56:24.148Z,8.90
2019-06-08T12:58:54.743Z,8.73
2019-06-08T13:01:25.167Z,8.93
2019-06-08T13:03:57.925Z,8.77
2019-06-08T13:06:28.286Z,8.77
2019-06-08T13:08:58.923Z,9.33
2019-06-08T13:11:29.652Z,10.53
2019-06-08T13:14:00.108Z,9.30
2019-06-08T13:16:30.652Z,8.87
2019-06-08T13:19:01.181Z,15.00
2019-06-08T13:21:35.296Z,9.23
2019-06-08T13:24:03.661Z,8.97
2019-06-08T13:26:34.019Z,8.90
2019-06-08T13:29:04.375Z,9.10
2019-06-08T13:31:34.831Z,8.73
2019-06-08T13:34:05.350Z,8.57
2019-06-08T13:36:35.883Z,9.07
2019-06-08T13:39:09.836Z,9.03
2019-06-08T13:41:39.051Z,8.93
2019-06-08T13:44:09.530Z,8.87
2019-06-08T13:46:39.986Z,9.00
2019-06-08T13:49:10.375Z,8.60
2019-06-08T13:51:40.846Z,8.53
2019-06-08T13:54:11.182Z,8.23
2019-06-08T13:56:41.695Z,8.70
2019-06-08T13:59:13.311Z,8.50
2019-06-08T14:01:44.026Z,8.00
2019-06-08T14:04:14.985Z,7.80
2019-06-08T14:06:45.671Z,8.03
2019-06-08T14:09:16.930Z,8.80
2019-06-08T14:11:48.150Z,7.77
2019-06-08T14:14:19.990Z,8.03
2019-06-08T14:16:50.695Z,7.77
2019-06-08T14:19:23.258Z,8.00
2019-06-08T14:21:53.355Z,7.17
2019-06-08T14:24:28.077Z,7.73
2019-06-08T14:26:58.289Z,7.93
2019-06-08T14:29:28.898Z,7.30
2019-06-08T14:32:00.041Z,7.40
2019-06-08T14:34:31.234Z,7.87
2019-06-08T14:37:01.732Z,7.03
2019-06-08T14:39:32.135Z,6.90
2019-06-08T14:42:02.535Z,6.83
2019-06-08T14:44:34.026Z,9.30
2019-06-08T14:47:16.590Z,10.70
2019-06-08T14:49:48.858Z,7.43
2019-06-08T14:52:21.899Z,6.70
2019-06-08T14:54:51.418Z,10.93
2019-06-08T14:57:21.870Z,6.10
2019-06-08T14:59:52.159Z,6.63
2019-06-08T15:02:23.474Z,6.00
2019-06-08T15:04:54.011Z,5.27
2019-06-08T15:07:26.129Z,5.53
2019-06-08T15:09:58.137Z,5.30
2019-06-08T15:12:30.108Z,4.87
2019-06-08T15:15:00.471Z,4.80
2019-06-08T15:17:32.115Z,4.73
2019-06-08T15:20:02.753Z,4.77
2019-06-08T15:22:33.263Z,4.47
2019-06-08T15:25:03.819Z,4.40
2019-06-08T15:27:34.297Z,4.27
2019-06-08T15:30:05.271Z,4.00
2019-06-08T15:32:38.559Z,4.30
2019-06-08T15:35:08.201Z,4.20
2019-06-08T15:37:40.850Z,3.73
2019-06-08T15:40:10.986Z,3.47
2019-06-08T15:42:41.346Z,3.67
2019-06-08T15:45:11.815Z,3.40
2019-06-08T15:47:42.083Z,3.50
2019-06-08T15:50:12.927Z,3.40
2019-06-08T15:52:43.491Z,3.30
2019-06-08T15:55:13.935Z,3.40
2019-06-08T15:57:44.302Z,3.20
2019-06-08T16:00:14.755Z,3.17
2019-06-08T16:02:45.138Z,3.07
2019-06-08T16:05:15.654Z,3.40
2019-06-08T16:07:46.035Z,3.20
2019-06-08T16:10:16.410Z,3.40
2019-06-08T16:12:46.930Z,3.10
2019-06-08T16:15:17.398Z,3.20
2019-06-08T16:17:47.847Z,2.93
2019-06-08T16:20:18.242Z,2.90
2019-06-08T16:22:48.583Z,3.40
2019-06-08T16:25:18.955Z,3.03
2019-06-08T16:27:49.298Z,2.83
2019-06-08T16:30:19.767Z,3.33
2019-06-08T16:32:50.165Z,3.60
2019-06-08T16:35:20.620Z,6.00
2019-06-08T16:37:50.914Z,2.80
2019-06-08T16:40:21.369Z,2.90
2019-06-08T16:42:51.679Z,2.80
2019-06-08T16:45:22.220Z,3.23
2019-06-08T16:47:52.574Z,2.57
2019-06-08T16:50:24.800Z,2.80
2019-06-08T16:52:55.094Z,5.03
2019-06-08T16:55:25.655Z,2.43
2019-06-08T16:57:56.107Z,4.83
2019-06-08T17:00:31.561Z,5.10
2019-06-08T17:02:58.618Z,2.90
2019-06-08T17:05:29.069Z,2.80
2019-06-08T17:07:59.512Z,3.67
2019-06-08T17:10:30.476Z,3.27
2019-06-08T17:13:00.946Z,2.80
2019-06-08T17:15:31.926Z,2.90
2019-06-08T17:18:02.499Z,2.60
2019-06-08T17:20:34.067Z,2.30
2019-06-08T17:23:04.635Z,2.30
2019-06-08T17:25:35.067Z,2.50
2019-06-08T17:28:05.654Z,2.60
2019-06-08T17:30:37.525Z,2.77
2019-06-08T17:33:08.679Z,2.40
2019-06-08T17:35:39.868Z,2.40
2019-06-08T17:38:10.589Z,2.50
2019-06-08T17:40:42.250Z,2.43
2019-06-08T17:43:12.895Z,2.60
2019-06-08T17:45:43.297Z,4.20
2019-06-08T17:48:13.714Z,2.50
2019-06-08T17:50:44.265Z,2.40
2019-06-08T17:53:14.715Z,2.80
2019-06-08T17:55:45.210Z,2.77
2019-06-08T17:58:15.546Z,2.57
2019-06-08T18:00:46.743Z,2.60
2019-06-08T18:03:17.370Z,2.43
2019-06-08T18:05:48.630Z,3.77
2019-06-08T18:08:19.287Z,2.90
2019-06-08T18:10:49.743Z,2.73
2019-06-08T18:13:20.293Z,2.57
2019-06-08T18:15:50.898Z,2.50
2019-06-08T18:18:21.283Z,2.40
2019-06-08T18:20:52.361Z,5.43
2019-06-08T18:23:22.718Z,5.20
2019-06-08T18:25:53.001Z,3.23
2019-06-08T18:28:23.361Z,2.90
2019-06-08T18:30:53.703Z,4.37
2019-06-08T18:33:24.082Z,6.40
2019-06-08T18:35:54.439Z,15.90
2019-06-08T18:38:27.269Z,12.60
2019-06-08T18:40:57.491Z,3.93
2019-06-08T18:43:28.132Z,10.63
2019-06-08T18:45:58.578Z,39.20
2019-06-08T18:48:28.969Z,14.50
2019-06-08T18:50:59.408Z,7.27
2019-06-08T18:53:29.758Z,5.70
2019-06-08T18:56:00.147Z,26.37
2019-06-08T18:58:30.606Z,85.73
2019-06-08T19:01:00.979Z,23.43
2019-06-08T19:03:31.427Z,37.30
2019-06-08T19:06:01.907Z,19.63
2019-06-08T19:08:32.682Z,46.77
2019-06-08T19:11:02.980Z,77.40
2019-06-08T19:13:33.465Z,71.50
2019-06-08T19:16:03.815Z,35.60
2019-06-08T19:18:34.198Z,31.80
2019-06-08T19:21:04.682Z,62.70
2019-06-08T19:23:37.464Z,23.93
2019-06-08T19:26:07.698Z,31.20
2019-06-08T19:28:44.951Z,113.23
2019-06-08T19:31:11.320Z,61.17
2019-06-08T19:33:42.259Z,46.07
2019-06-08T19:36:12.719Z,39.67
2019-06-08T19:38:43.074Z,79.87
2019-06-08T19:41:13.467Z,43.17
2019-06-08T19:43:47.718Z,28.87
2019-06-08T19:46:18.106Z,53.40
2019-06-08T19:48:54.331Z,24.40
2019-06-08T19:51:20.974Z,19.03
2019-06-08T19:53:54.897Z,16.53
2019-06-08T19:56:23.885Z,102.43
2019-06-08T19:59:01.812Z,55.20
2019-06-08T20:01:27.658Z,29.83
2019-06-08T20:04:01.310Z,17.13
2019-06-08T20:06:30.682Z,10.03
2019-06-08T20:09:01.167Z,37.93
2019-06-08T20:11:31.610Z,21.23
2019-06-08T20:14:02.007Z,51.97
2019-06-08T20:16:32.495Z,43.73
2019-06-08T20:19:03.110Z,11.87
2019-06-08T20:21:33.490Z,17.00
2019-06-08T20:24:04.033Z,10.70
2019-06-08T20:26:34.510Z,15.37
2019-06-08T20:29:13.568Z,14.97
2019-06-08T20:31:38.478Z,58.10
2019-06-08T20:34:08.983Z,18.83
2019-06-08T20:36:39.426Z,15.23
2019-06-08T20:39:09.838Z,7.33
2019-06-08T20:41:40.215Z,8.37
2019-06-08T20:44:10.626Z,39.70
2019-06-08T20:46:41.854Z,8.60
2019-06-08T20:49:12.851Z,6.17
2019-06-08T20:51:44.230Z,6.83
2019-06-08T20:54:17.122Z,8.87
2019-06-08T20:56:47.887Z,4.70
2019-06-08T20:59:29.924Z,5.07
2019-06-08T21:01:52.662Z,4.20
2019-06-08T21:04:24.409Z,7.30
2019-06-08T21:06:57.216Z,4.30
2019-06-08T21:09:27.824Z,4.50
2019-06-08T21:11:58.878Z,4.43
2019-06-08T21:14:29.629Z,3.60
2019-06-08T21:17:00.044Z,3.30
2019-06-08T21:19:30.521Z,3.27
2019-06-08T21:22:00.916Z,3.67
2019-06-08T21:24:31.371Z,3.60
2019-06-08T21:27:01.784Z,3.60
2019-06-08T21:29:47.118Z,11.60
2019-06-08T21:32:04.216Z,8.20
2019-06-08T21:34:34.554Z,6.80
2019-06-08T21:37:04.943Z,16.87
2019-06-08T21:39:36.690Z,26.97
2019-06-08T21:42:07.904Z,4.10
2019-06-08T21:44:38.575Z,13.13
2019-06-08T21:47:08.950Z,7.00
2019-06-08T21:49:39.348Z,6.60
2019-06-08T21:52:09.693Z,17.23
2019-06-08T21:54:40.142Z,6.90
2019-06-08T21:57:10.418Z,10.57
2019-06-08T21:59:40.787Z,12.40
2019-06-08T22:02:11.218Z,5.87
2019-06-08T22:04:41.496Z,4.87
2019-06-08T22:07:11.838Z,9.27
2019-06-08T22:09:50.255Z,10.40
2019-06-08T22:12:20.642Z,16.93
2019-06-08T22:14:51.329Z,7.67
2019-06-08T22:17:22.939Z,5.73
2019-06-08T22:19:53.603Z,6.53
2019-06-08T22:22:23.958Z,12.23
2019-06-08T22:24:55.398Z,5.37
2019-06-08T22:27:27.226Z,3.70
2019-06-08T22:29:58.548Z,4.70
2019-06-08T22:32:29.802Z,5.80
2019-06-08T22:35:01.662Z,4.60
2019-06-08T22:37:32.219Z,5.80
2019-06-08T22:40:03.628Z,4.97
2019-06-08T22:42:34.115Z,3.83
2019-06-08T22:45:04.651Z,4.07
2019-06-08T22:47:35.119Z,3.80
2019-06-08T22:50:07.909Z,3.73
2019-06-08T22:52:38.050Z,3.60
2019-06-08T22:55:10.986Z,3.53
2019-06-08T22:57:40.739Z,3.60
2019-06-08T23:00:17.207Z,3.80
2019-06-08T23:02:44.243Z,3.50
2019-06-08T23:05:14.590Z,3.60
2019-06-08T23:07:44.954Z,3.80
2019-06-08T23:10:17.421Z,3.73
2019-06-08T23:12:47.370Z,3.70
2019-06-08T23:15:18.312Z,3.30
2019-06-08T23:17:48.901Z,3.10
2019-06-08T23:20:19.331Z,3.60
2019-06-08T23:22:50.580Z,3.30
2019-06-08T23:25:21.026Z,3.53
2019-06-08T23:27:51.397Z,3.40
2019-06-08T23:30:21.827Z,3.57
2019-06-08T23:32:52.272Z,3.60
2019-06-08T23:35:22.706Z,3.80
2019-06-08T23:37:52.982Z,3.63
2019-06-08T23:40:23.378Z,3.50
2019-06-08T23:42:53.733Z,3.73
2019-06-08T23:45:24.174Z,3.53
2019-06-08T23:47:57.009Z,3.53
2019-06-08T23:50:27.262Z,3.40
2019-06-08T23:52:59.030Z,3.37
2019-06-08T23:55:29.931Z,3.40
2019-06-08T23:58:01.429Z,3.20
